Tampa, FL

12:44 PM EDT am 02. September 2014 (GMT -0400)
MacDill Air Force Base | Change Station
CLOSE
Current Station
Flughafen
Location: Tampa Macdill AFB,
Höhe: 13 ft
Wetterstationen in der Umgebung

Höhe 13 ft 27.85 °N, 82.52 °W | Updated 46 minutes ago

Partly Cloudy
Teils Wolkig
90 °F
gefühlte 106 °F
N
5
Wind Wechselnd Wind aus West-Südwest

Heute
Max. -- | schwach -- °F
--% Regenrisiko
Gestern
Max. -- | schwach -- °F
Precip. -- inch
7:09 AM 7:49 PM
Erstes Viertel, 53% visible
Druck 30.11 inch
Sichtweite 10.0 Meilen
Wolken Few 2600 ft
Hitzeindex 106 °F
Taupunkt 79 °F
Feuchtigkeit 69%
Regen 0.01 inch
Schneehöhe Nicht verfügbar..
UV 11 von 12
Pollen 5.20 von 12
Luftqualität Nicht verfügbar..
Flu Activity Nicht verfügbar..
METAR KMCF 021558Z AUTO 25004KT 10SM FEW026 32/26 A3010 RMK AO2 SLP196 T03230259

More Conditions Fewer Conditions

Druck 30.11 inch
Sichtweite 10.0 Meilen
Wolken Few 2600 ft
Hitzeindex 106 °F
Taupunkt 79 °F
Feuchtigkeit 69%
Regen 0.01 inch
Schneehöhe Nicht verfügbar..
UV 11 von 12
Pollen 5.20 von 12
Luftqualität Nicht verfügbar..
Flu Activity Nicht verfügbar..
METAR KMCF 021558Z AUTO 25004KT 10SM FEW026 32/26 A3010 RMK AO2 SLP196 T03230259

More Conditions Fewer Conditions

10-Day Weather Forecast

Almanac

Astronomie

Sep. 02, 2014 Aufgang Untergang
Genaue Zeit 07:09 EDT 19:49 EDT
Bürgerliche Dämmerung 06:45 EDT 20:13 EDT
Nautische Dämmerung 06:17 EDT 20:41 EDT
Astronomische Dämmerung 05:49 EDT 21:09 EDT
Mond 14:16 EDT 00:25 EDT
Länge des sichtbaren Lichts 13h 28m
Tageslänge
12h 40m
Tomorrow will be 1m 36s shorter.
Erstes Viertel, 53% of the Moon is Illuminated
Heute
Erstes Viertel
Sept 8
Vollmond
Sept 15
Letztes Viertel
Sept 24
Neu
Okt 1
Erstes Viertel

Heutige Rekorde

State Highs State Lows

Community

WunderPhotos

Upload Photos

1,749,716 Fotos hochgeladen!

Nearby

Schneehöhe

Station Depth Höhe
Kein Neuschnee gemeldet.

Erdbebenaktivität

Stadt Distance Mag. Time & Date
No recent earthquake activity has been reported nearby.
Minimum magnitude displayed is 2.5.

küstennahe Wassertemperaturen

Ort Temperatur
St Petersburg, FL 91.0 °F
Old Port Tampa, FL 88.0 °F
McKay Bay Entrance, FL 89.1 °F

Wetterstationen in der Umgebung